createdAt,value
2023-01-20T20:37:12.477Z,21.80
2023-01-20T20:39:41.974Z,23.10
2023-01-20T20:42:08.735Z,24.20
2023-01-20T20:44:35.767Z,24.00
2023-01-20T20:47:02.795Z,23.40
2023-01-20T20:49:31.492Z,21.90
2023-01-20T20:52:00.730Z,24.10
2023-01-20T20:54:27.757Z,25.20
2023-01-20T20:56:54.895Z,23.60
2023-01-20T20:59:24.827Z,24.30
2023-01-20T21:01:52.609Z,23.00
2023-01-20T21:04:19.491Z,22.50
2023-01-20T21:06:46.302Z,23.30
2023-01-20T21:09:13.240Z,23.70
2023-01-20T21:11:42.936Z,23.50
2023-01-20T21:14:10.170Z,22.70
2023-01-20T21:16:37.928Z,22.60
2023-01-20T21:19:05.250Z,22.80
2023-01-20T21:21:35.543Z,24.80
2023-01-20T21:24:02.669Z,23.60
2023-01-20T21:26:30.721Z,22.10
2023-01-20T21:29:01.852Z,22.00
2023-01-20T21:31:31.076Z,24.80
2023-01-20T21:33:58.923Z,24.70
2023-01-20T21:36:27.695Z,22.90
2023-01-20T21:38:56.784Z,21.60
2023-01-20T21:41:23.779Z,23.50
2023-01-20T21:44:09.153Z,23.60
2023-01-20T21:46:40.536Z,24.70
2023-01-20T21:52:29.894Z,22.70
2023-01-20T21:54:56.771Z,23.60
2023-01-20T21:57:24.572Z,22.40
2023-01-20T21:59:52.370Z,24.60
2023-01-20T22:02:19.387Z,25.20
2023-01-20T22:04:47.198Z,22.20
2023-01-20T22:07:15.665Z,24.60
2023-01-20T22:09:42.497Z,24.20
2023-01-20T22:12:10.469Z,25.70
2023-01-20T22:14:38.316Z,26.10
2023-01-20T22:17:06.656Z,25.60
2023-01-20T22:19:33.769Z,26.00
2023-01-20T22:22:01.429Z,27.80
2023-01-20T22:24:28.750Z,28.80
2023-01-20T22:26:55.771Z,28.40
2023-01-20T22:29:22.797Z,29.60
2023-01-20T22:31:56.032Z,29.60
2023-01-20T22:34:23.303Z,29.20
2023-01-20T22:36:50.147Z,30.40
2023-01-20T22:39:16.973Z,26.80
2023-01-20T22:41:43.928Z,26.80
2023-01-20T22:44:13.087Z,29.70
2023-01-20T22:46:39.904Z,28.20
2023-01-20T22:49:06.768Z,27.50
2023-01-20T22:51:33.553Z,29.40
2023-01-20T22:54:01.442Z,29.50
2023-01-20T22:56:31.668Z,28.10
2023-01-20T22:58:59.890Z,30.10
2023-01-20T23:01:30.549Z,31.40
2023-01-20T23:04:02.032Z,31.30
2023-01-20T23:06:32.631Z,29.30
2023-01-20T23:09:01.304Z,32.00
2023-01-20T23:11:28.438Z,32.70
2023-01-20T23:13:55.372Z,30.00
2023-01-20T23:16:22.944Z,29.80
2023-01-20T23:18:51.019Z,29.60
2023-01-20T23:21:21.097Z,30.30
2023-01-20T23:23:55.010Z,31.50
2023-01-20T23:26:28.462Z,33.00
2023-01-20T23:28:56.198Z,31.20
2023-01-20T23:31:24.890Z,33.50
2023-01-20T23:33:55.777Z,29.50
2023-01-20T23:36:24.766Z,33.20
2023-01-20T23:38:56.143Z,33.00
2023-01-20T23:41:26.066Z,30.30
2023-01-20T23:43:52.986Z,30.50
2023-01-20T23:46:19.859Z,33.20
2023-01-20T23:48:47.457Z,31.20
2023-01-20T23:51:14.802Z,31.40
2023-01-20T23:53:44.419Z,29.80
2023-01-20T23:56:18.195Z,28.80
2023-01-20T23:58:47.193Z,29.80
